sensor_id;sensor_type;location;lat;lon;timestamp;P1;durP1;ratioP1;P2;durP2;ratioP2
47287;SDS011;33020;53.008;13.558;2022-09-01T00:00:00;2.55;;;2.08;;
47287;SDS011;33020;53.008;13.558;2022-09-01T00:02:32;2.25;;;1.60;;
47287;SDS011;33020;53.008;13.558;2022-09-01T00:04:59;2.28;;;1.80;;
47287;SDS011;33020;53.008;13.558;2022-09-01T00:07:29;4.05;;;1.80;;
47287;SDS011;33020;53.008;13.558;2022-09-01T00:10:00;2.00;;;1.70;;
47287;SDS011;33020;53.008;13.558;2022-09-01T00:12:27;3.10;;;1.80;;
47287;SDS011;33020;53.008;13.558;2022-09-01T00:14:54;3.05;;;2.15;;
47287;SDS011;33020;53.008;13.558;2022-09-01T00:17:21;2.10;;;1.90;;
47287;SDS011;33020;53.008;13.558;2022-09-01T00:19:48;2.92;;;2.00;;
47287;SDS011;33020;53.008;13.558;2022-09-01T00:22:15;2.22;;;1.77;;
47287;SDS011;33020;53.008;13.558;2022-09-01T00:24:41;3.08;;;2.00;;
47287;SDS011;33020;53.008;13.558;2022-09-01T00:27:08;2.80;;;2.00;;
47287;SDS011;33020;53.008;13.558;2022-09-01T00:29:35;3.33;;;2.10;;
47287;SDS011;33020;53.008;13.558;2022-09-01T00:32:02;4.22;;;2.08;;
47287;SDS011;33020;53.008;13.558;2022-09-01T00:34:29;2.33;;;1.80;;
47287;SDS011;33020;53.008;13.558;2022-09-01T00:36:56;1.80;;;1.50;;
47287;SDS011;33020;53.008;13.558;2022-09-01T00:39:22;2.67;;;1.88;;
47287;SDS011;33020;53.008;13.558;2022-09-01T00:41:50;2.20;;;1.75;;
47287;SDS011;33020;53.008;13.558;2022-09-01T00:44:18;2.00;;;1.80;;
47287;SDS011;33020;53.008;13.558;2022-09-01T00:46:53;1.77;;;1.65;;
47287;SDS011;33020;53.008;13.558;2022-09-01T00:49:29;2.00;;;1.65;;
47287;SDS011;33020;53.008;13.558;2022-09-01T00:52:03;2.20;;;1.83;;
47287;SDS011;33020;53.008;13.558;2022-09-01T00:54:35;2.72;;;1.55;;
47287;SDS011;33020;53.008;13.558;2022-09-01T00:57:06;3.42;;;1.80;;
47287;SDS011;33020;53.008;13.558;2022-09-01T00:59:34;2.42;;;1.83;;
47287;SDS011;33020;53.008;13.558;2022-09-01T01:02:01;2.50;;;1.60;;
47287;SDS011;33020;53.008;13.558;2022-09-01T01:04:28;3.65;;;2.53;;
47287;SDS011;33020;53.008;13.558;2022-09-01T01:06:56;2.75;;;1.75;;
47287;SDS011;33020;53.008;13.558;2022-09-01T01:09:28;1.92;;;1.70;;
47287;SDS011;33020;53.008;13.558;2022-09-01T01:11:57;2.50;;;1.70;;
47287;SDS011;33020;53.008;13.558;2022-09-01T01:14:25;2.33;;;1.90;;
47287;SDS011;33020;53.008;13.558;2022-09-01T01:16:54;2.30;;;1.88;;
47287;SDS011;33020;53.008;13.558;2022-09-01T01:19:22;2.95;;;2.05;;
47287;SDS011;33020;53.008;13.558;2022-09-01T01:25:18;2.23;;;1.70;;
47287;SDS011;33020;53.008;13.558;2022-09-01T01:27:47;2.53;;;1.90;;
47287;SDS011;33020;53.008;13.558;2022-09-01T01:30:15;2.27;;;1.70;;
47287;SDS011;33020;53.008;13.558;2022-09-01T01:32:44;3.30;;;2.07;;
47287;SDS011;33020;53.008;13.558;2022-09-01T01:35:13;2.67;;;2.03;;
47287;SDS011;33020;53.008;13.558;2022-09-01T01:37:42;2.57;;;2.10;;
47287;SDS011;33020;53.008;13.558;2022-09-01T01:40:12;2.60;;;2.17;;
47287;SDS011;33020;53.008;13.558;2022-09-01T01:42:42;3.25;;;1.90;;
47287;SDS011;33020;53.008;13.558;2022-09-01T01:45:15;2.53;;;1.92;;
47287;SDS011;33020;53.008;13.558;2022-09-01T01:47:43;2.30;;;2.08;;
47287;SDS011;33020;53.008;13.558;2022-09-01T01:50:23;2.37;;;2.17;;
47287;SDS011;33020;53.008;13.558;2022-09-01T01:52:59;2.83;;;2.10;;
47287;SDS011;33020;53.008;13.558;2022-09-01T01:55:36;2.63;;;2.07;;
47287;SDS011;33020;53.008;13.558;2022-09-01T01:58:03;3.20;;;2.33;;
47287;SDS011;33020;53.008;13.558;2022-09-01T02:00:30;2.27;;;1.80;;
47287;SDS011;33020;53.008;13.558;2022-09-01T02:02:59;2.90;;;2.10;;
47287;SDS011;33020;53.008;13.558;2022-09-01T02:05:30;2.57;;;2.03;;
47287;SDS011;33020;53.008;13.558;2022-09-01T02:07:59;3.03;;;2.00;;
47287;SDS011;33020;53.008;13.558;2022-09-01T02:10:32;3.90;;;2.33;;
47287;SDS011;33020;53.008;13.558;2022-09-01T02:13:02;2.73;;;1.93;;
47287;SDS011;33020;53.008;13.558;2022-09-01T02:15:33;2.93;;;2.27;;
47287;SDS011;33020;53.008;13.558;2022-09-01T02:18:08;3.80;;;2.20;;
47287;SDS011;33020;53.008;13.558;2022-09-01T02:20:46;3.37;;;2.43;;
47287;SDS011;33020;53.008;13.558;2022-09-01T02:23:15;5.10;;;2.50;;
47287;SDS011;33020;53.008;13.558;2022-09-01T02:25:49;2.38;;;2.03;;
47287;SDS011;33020;53.008;13.558;2022-09-01T02:28:39;2.80;;;1.93;;
47287;SDS011;33020;53.008;13.558;2022-09-01T02:31:08;2.33;;;1.70;;
47287;SDS011;33020;53.008;13.558;2022-09-01T02:33:37;2.50;;;1.87;;
47287;SDS011;33020;53.008;13.558;2022-09-01T02:36:06;2.57;;;2.30;;
47287;SDS011;33020;53.008;13.558;2022-09-01T02:38:35;3.00;;;2.07;;
47287;SDS011;33020;53.008;13.558;2022-09-01T02:41:04;2.67;;;2.00;;
47287;SDS011;33020;53.008;13.558;2022-09-01T02:43:31;3.73;;;2.03;;
47287;SDS011;33020;53.008;13.558;2022-09-01T02:46:01;3.13;;;1.97;;
47287;SDS011;33020;53.008;13.558;2022-09-01T02:48:29;2.37;;;1.80;;
47287;SDS011;33020;53.008;13.558;2022-09-01T02:50:59;2.57;;;2.10;;
47287;SDS011;33020;53.008;13.558;2022-09-01T02:53:28;2.50;;;1.90;;
47287;SDS011;33020;53.008;13.558;2022-09-01T02:55:56;3.70;;;2.23;;
47287;SDS011;33020;53.008;13.558;2022-09-01T02:58:25;3.47;;;2.33;;
47287;SDS011;33020;53.008;13.558;2022-09-01T03:00:54;2.40;;;2.00;;
47287;SDS011;33020;53.008;13.558;2022-09-01T03:03:22;4.20;;;2.67;;
47287;SDS011;33020;53.008;13.558;2022-09-01T03:05:50;3.80;;;2.80;;
47287;SDS011;33020;53.008;13.558;2022-09-01T03:08:22;3.47;;;2.00;;
47287;SDS011;33020;53.008;13.558;2022-09-01T03:10:50;3.23;;;2.37;;
47287;SDS011;33020;53.008;13.558;2022-09-01T03:13:20;2.73;;;2.37;;
47287;SDS011;33020;53.008;13.558;2022-09-01T03:15:49;3.60;;;2.50;;
47287;SDS011;33020;53.008;13.558;2022-09-01T03:18:16;3.83;;;2.20;;
47287;SDS011;33020;53.008;13.558;2022-09-01T03:20:44;3.07;;;2.57;;
47287;SDS011;33020;53.008;13.558;2022-09-01T03:23:13;3.43;;;2.67;;
47287;SDS011;33020;53.008;13.558;2022-09-01T03:25:46;4.10;;;2.03;;
47287;SDS011;33020;53.008;13.558;2022-09-01T03:28:13;3.37;;;2.27;;
47287;SDS011;33020;53.008;13.558;2022-09-01T03:30:48;3.60;;;2.40;;
47287;SDS011;33020;53.008;13.558;2022-09-01T03:33:17;3.73;;;2.13;;
47287;SDS011;33020;53.008;13.558;2022-09-01T03:35:46;4.90;;;2.20;;
47287;SDS011;33020;53.008;13.558;2022-09-01T03:38:13;4.03;;;2.47;;
47287;SDS011;33020;53.008;13.558;2022-09-01T03:40:46;3.60;;;2.30;;
47287;SDS011;33020;53.008;13.558;2022-09-01T03:43:14;3.27;;;2.40;;
47287;SDS011;33020;53.008;13.558;2022-09-01T03:45:42;2.93;;;2.20;;
47287;SDS011;33020;53.008;13.558;2022-09-01T03:48:09;2.77;;;2.13;;
47287;SDS011;33020;53.008;13.558;2022-09-01T03:50:36;2.60;;;2.10;;
47287;SDS011;33020;53.008;13.558;2022-09-01T03:53:06;3.53;;;2.33;;
47287;SDS011;33020;53.008;13.558;2022-09-01T03:55:34;3.43;;;2.47;;
47287;SDS011;33020;53.008;13.558;2022-09-01T03:58:05;3.63;;;2.30;;
47287;SDS011;33020;53.008;13.558;2022-09-01T04:00:36;3.93;;;2.40;;
47287;SDS011;33020;53.008;13.558;2022-09-01T04:03:06;3.93;;;2.33;;
47287;SDS011;33020;53.008;13.558;2022-09-01T04:05:34;3.33;;;2.40;;
47287;SDS011;33020;53.008;13.558;2022-09-01T04:08:04;3.70;;;2.40;;
47287;SDS011;33020;53.008;13.558;2022-09-01T04:10:33;3.30;;;2.63;;
47287;SDS011;33020;53.008;13.558;2022-09-01T04:13:01;3.37;;;2.50;;
47287;SDS011;33020;53.008;13.558;2022-09-01T04:15:28;3.00;;;2.43;;
47287;SDS011;33020;53.008;13.558;2022-09-01T04:17:55;3.17;;;2.53;;
47287;SDS011;33020;53.008;13.558;2022-09-01T04:20:47;3.90;;;2.40;;
47287;SDS011;33020;53.008;13.558;2022-09-01T04:23:26;4.23;;;2.57;;
47287;SDS011;33020;53.008;13.558;2022-09-01T04:26:03;4.03;;;2.63;;
47287;SDS011;33020;53.008;13.558;2022-09-01T04:28:39;2.30;;;2.10;;
47287;SDS011;33020;53.008;13.558;2022-09-01T04:31:12;4.20;;;2.17;;
47287;SDS011;33020;53.008;13.558;2022-09-01T04:33:47;3.47;;;2.50;;
47287;SDS011;33020;53.008;13.558;2022-09-01T04:36:25;4.90;;;2.10;;
47287;SDS011;33020;53.008;13.558;2022-09-01T04:38:58;2.20;;;2.00;;
47287;SDS011;33020;53.008;13.558;2022-09-01T04:41:28;2.77;;;2.30;;
47287;SDS011;33020;53.008;13.558;2022-09-01T04:43:58;3.47;;;2.23;;
47287;SDS011;33020;53.008;13.558;2022-09-01T04:46:31;3.30;;;2.23;;
47287;SDS011;33020;53.008;13.558;2022-09-01T04:49:01;3.83;;;2.33;;
47287;SDS011;33020;53.008;13.558;2022-09-01T04:51:39;5.60;;;2.40;;
47287;SDS011;33020;53.008;13.558;2022-09-01T04:54:07;3.07;;;2.30;;
47287;SDS011;33020;53.008;13.558;2022-09-01T04:56:40;3.13;;;2.40;;
47287;SDS011;33020;53.008;13.558;2022-09-01T04:59:11;3.50;;;2.17;;
47287;SDS011;33020;53.008;13.558;2022-09-01T05:01:39;2.77;;;2.47;;
47287;SDS011;33020;53.008;13.558;2022-09-01T05:04:29;3.53;;;2.50;;
47287;SDS011;33020;53.008;13.558;2022-09-01T05:06:59;4.23;;;2.40;;
47287;SDS011;33020;53.008;13.558;2022-09-01T05:09:27;3.07;;;2.47;;
47287;SDS011;33020;53.008;13.558;2022-09-01T05:11:56;3.70;;;2.70;;
47287;SDS011;33020;53.008;13.558;2022-09-01T05:14:23;3.80;;;2.50;;
47287;SDS011;33020;53.008;13.558;2022-09-01T05:16:55;2.97;;;2.60;;
47287;SDS011;33020;53.008;13.558;2022-09-01T05:19:24;4.03;;;2.20;;
47287;SDS011;33020;53.008;13.558;2022-09-01T05:21:54;4.13;;;2.57;;
47287;SDS011;33020;53.008;13.558;2022-09-01T05:24:23;2.57;;;2.03;;
47287;SDS011;33020;53.008;13.558;2022-09-01T05:26:56;3.47;;;2.53;;
47287;SDS011;33020;53.008;13.558;2022-09-01T05:29:25;3.83;;;2.67;;
47287;SDS011;33020;53.008;13.558;2022-09-01T05:31:53;3.57;;;2.43;;
47287;SDS011;33020;53.008;13.558;2022-09-01T05:34:24;3.67;;;2.87;;
47287;SDS011;33020;53.008;13.558;2022-09-01T05:36:56;4.13;;;2.60;;
47287;SDS011;33020;53.008;13.558;2022-09-01T05:39:25;2.63;;;2.43;;
47287;SDS011;33020;53.008;13.558;2022-09-01T05:41:52;4.27;;;2.90;;
47287;SDS011;33020;53.008;13.558;2022-09-01T05:44:20;2.97;;;2.50;;
47287;SDS011;33020;53.008;13.558;2022-09-01T05:46:49;3.37;;;2.60;;
47287;SDS011;33020;53.008;13.558;2022-09-01T05:49:16;4.40;;;2.53;;
47287;SDS011;33020;53.008;13.558;2022-09-01T05:51:45;3.50;;;2.80;;
47287;SDS011;33020;53.008;13.558;2022-09-01T05:54:20;4.57;;;2.60;;
47287;SDS011;33020;53.008;13.558;2022-09-01T05:56:54;3.30;;;3.00;;
47287;SDS011;33020;53.008;13.558;2022-09-01T05:59:33;4.60;;;2.40;;
47287;SDS011;33020;53.008;13.558;2022-09-01T06:02:00;3.50;;;2.60;;
47287;SDS011;33020;53.008;13.558;2022-09-01T06:04:28;5.03;;;2.93;;
47287;SDS011;33020;53.008;13.558;2022-09-01T06:06:55;4.30;;;3.23;;
47287;SDS011;33020;53.008;13.558;2022-09-01T06:09:37;3.43;;;2.53;;
47287;SDS011;33020;53.008;13.558;2022-09-01T06:12:04;6.03;;;2.40;;
47287;SDS011;33020;53.008;13.558;2022-09-01T06:14:32;4.07;;;2.70;;
47287;SDS011;33020;53.008;13.558;2022-09-01T06:17:00;3.17;;;2.60;;
47287;SDS011;33020;53.008;13.558;2022-09-01T06:19:28;5.53;;;2.78;;
47287;SDS011;33020;53.008;13.558;2022-09-01T06:22:01;4.15;;;2.67;;
47287;SDS011;33020;53.008;13.558;2022-09-01T06:24:28;2.72;;;1.98;;
47287;SDS011;33020;53.008;13.558;2022-09-01T06:26:55;2.38;;;1.98;;
47287;SDS011;33020;53.008;13.558;2022-09-01T06:29:21;1.60;;;1.40;;
47287;SDS011;33020;53.008;13.558;2022-09-01T06:31:48;2.80;;;1.45;;
47287;SDS011;33020;53.008;13.558;2022-09-01T06:34:18;1.52;;;1.20;;
47287;SDS011;33020;53.008;13.558;2022-09-01T06:36:46;1.58;;;1.30;;
47287;SDS011;33020;53.008;13.558;2022-09-01T06:39:14;1.65;;;1.25;;
47287;SDS011;33020;53.008;13.558;2022-09-01T06:41:48;1.85;;;1.20;;
47287;SDS011;33020;53.008;13.558;2022-09-01T06:44:18;2.17;;;1.17;;
47287;SDS011;33020;53.008;13.558;2022-09-01T06:46:48;1.70;;;1.15;;
47287;SDS011;33020;53.008;13.558;2022-09-01T06:49:17;2.22;;;1.40;;
47287;SDS011;33020;53.008;13.558;2022-09-01T06:51:46;3.88;;;1.30;;
47287;SDS011;33020;53.008;13.558;2022-09-01T06:54:17;3.08;;;1.50;;
47287;SDS011;33020;53.008;13.558;2022-09-01T06:56:46;3.60;;;1.80;;
47287;SDS011;33020;53.008;13.558;2022-09-01T06:59:19;1.42;;;1.33;;
47287;SDS011;33020;53.008;13.558;2022-09-01T07:01:46;1.63;;;1.27;;
47287;SDS011;33020;53.008;13.558;2022-09-01T07:04:15;2.33;;;1.50;;
47287;SDS011;33020;53.008;13.558;2022-09-01T07:06:45;2.00;;;1.10;;
47287;SDS011;33020;53.008;13.558;2022-09-01T07:09:27;1.45;;;1.00;;
47287;SDS011;33020;53.008;13.558;2022-09-01T07:12:14;1.50;;;1.13;;
47287;SDS011;33020;53.008;13.558;2022-09-01T07:15:05;1.50;;;1.20;;
47287;SDS011;33020;53.008;13.558;2022-09-01T07:17:54;1.92;;;1.00;;
47287;SDS011;33020;53.008;13.558;2022-09-01T07:20:24;2.08;;;1.13;;
47287;SDS011;33020;53.008;13.558;2022-09-01T07:22:54;2.35;;;1.10;;
47287;SDS011;33020;53.008;13.558;2022-09-01T07:25:31;2.78;;;1.00;;
47287;SDS011;33020;53.008;13.558;2022-09-01T07:28:20;1.70;;;1.00;;
47287;SDS011;33020;53.008;13.558;2022-09-01T07:30:50;1.35;;;1.10;;
47287;SDS011;33020;53.008;13.558;2022-09-01T07:33:19;0.80;;;0.80;;
47287;SDS011;33020;53.008;13.558;2022-09-01T07:36:09;1.10;;;0.90;;
47287;SDS011;33020;53.008;13.558;2022-09-01T07:38:52;2.60;;;1.02;;
47287;SDS011;33020;53.008;13.558;2022-09-01T07:41:39;1.05;;;0.90;;
47287;SDS011;33020;53.008;13.558;2022-09-01T07:44:27;1.10;;;1.00;;
47287;SDS011;33020;53.008;13.558;2022-09-01T07:46:53;1.02;;;0.90;;
47287;SDS011;33020;53.008;13.558;2022-09-01T07:49:40;1.08;;;0.90;;
47287;SDS011;33020;53.008;13.558;2022-09-01T07:52:27;1.20;;;0.90;;
47287;SDS011;33020;53.008;13.558;2022-09-01T07:54:54;1.83;;;0.90;;
47287;SDS011;33020;53.008;13.558;2022-09-01T07:57:21;0.75;;;0.70;;
47287;SDS011;33020;53.008;13.558;2022-09-01T07:59:48;1.02;;;0.95;;
47287;SDS011;33020;53.008;13.558;2022-09-01T08:02:17;1.92;;;0.98;;
47287;SDS011;33020;53.008;13.558;2022-09-01T08:04:43;0.80;;;0.80;;
47287;SDS011;33020;53.008;13.558;2022-09-01T08:07:11;1.75;;;0.70;;
47287;SDS011;33020;53.008;13.558;2022-09-01T08:09:41;2.25;;;0.93;;
47287;SDS011;33020;53.008;13.558;2022-09-01T08:12:09;1.55;;;0.80;;
47287;SDS011;33020;53.008;13.558;2022-09-01T08:14:36;2.30;;;0.70;;
47287;SDS011;33020;53.008;13.558;2022-09-01T08:17:03;2.55;;;0.90;;
47287;SDS011;33020;53.008;13.558;2022-09-01T08:19:50;1.00;;;0.70;;
47287;SDS011;33020;53.008;13.558;2022-09-01T08:22:18;0.80;;;0.70;;
47287;SDS011;33020;53.008;13.558;2022-09-01T08:24:51;1.90;;;0.93;;
47287;SDS011;33020;53.008;13.558;2022-09-01T08:27:18;1.35;;;0.70;;
47287;SDS011;33020;53.008;13.558;2022-09-01T08:29:45;0.82;;;0.80;;
47287;SDS011;33020;53.008;13.558;2022-09-01T08:32:11;1.02;;;0.90;;
47287;SDS011;33020;53.008;13.558;2022-09-01T08:34:38;1.27;;;0.70;;
47287;SDS011;33020;53.008;13.558;2022-09-01T08:37:05;1.58;;;0.80;;
47287;SDS011;33020;53.008;13.558;2022-09-01T08:39:32;0.82;;;0.70;;
47287;SDS011;33020;53.008;13.558;2022-09-01T08:42:05;2.38;;;0.68;;
47287;SDS011;33020;53.008;13.558;2022-09-01T08:44:40;1.70;;;0.80;;
47287;SDS011;33020;53.008;13.558;2022-09-01T08:49:41;1.23;;;0.70;;
47287;SDS011;33020;53.008;13.558;2022-09-01T08:52:20;0.75;;;0.75;;
47287;SDS011;33020;53.008;13.558;2022-09-01T08:55:04;2.22;;;1.15;;
47287;SDS011;33020;53.008;13.558;2022-09-01T08:57:36;3.45;;;0.50;;
47287;SDS011;33020;53.008;13.558;2022-09-01T09:00:06;2.58;;;0.75;;
47287;SDS011;33020;53.008;13.558;2022-09-01T09:16:33;1.30;;;0.80;;
47287;SDS011;33020;53.008;13.558;2022-09-01T09:19:21;2.17;;;0.70;;
47287;SDS011;33020;53.008;13.558;2022-09-01T09:21:54;0.65;;;0.65;;
47287;SDS011;33020;53.008;13.558;2022-09-01T09:27:37;4.57;;;1.13;;
47287;SDS011;33020;53.008;13.558;2022-09-01T09:30:20;1.00;;;0.65;;
47287;SDS011;33020;53.008;13.558;2022-09-01T09:32:53;1.40;;;0.70;;
47287;SDS011;33020;53.008;13.558;2022-09-01T09:35:44;1.13;;;0.77;;
47287;SDS011;33020;53.008;13.558;2022-09-01T09:41:21;1.45;;;0.60;;
47287;SDS011;33020;53.008;13.558;2022-09-01T09:43:56;3.08;;;0.90;;
47287;SDS011;33020;53.008;13.558;2022-09-01T09:49:07;1.65;;;0.63;;
47287;SDS011;33020;53.008;13.558;2022-09-01T09:54:34;1.00;;;0.50;;
47287;SDS011;33020;53.008;13.558;2022-09-01T09:57:04;0.95;;;0.90;;
47287;SDS011;33020;53.008;13.558;2022-09-01T09:59:39;0.70;;;0.70;;
47287;SDS011;33020;53.008;13.558;2022-09-01T10:07:43;0.73;;;0.70;;
47287;SDS011;33020;53.008;13.558;2022-09-01T10:10:27;1.65;;;0.80;;
47287;SDS011;33020;53.008;13.558;2022-09-01T10:13:24;0.75;;;0.70;;
47287;SDS011;33020;53.008;13.558;2022-09-01T10:15:53;0.60;;;0.60;;
47287;SDS011;33020;53.008;13.558;2022-09-01T10:18:29;1.00;;;0.90;;
47287;SDS011;33020;53.008;13.558;2022-09-01T10:21:49;0.65;;;0.57;;
47287;SDS011;33020;53.008;13.558;2022-09-01T10:24:01;0.87;;;0.70;;
47287;SDS011;33020;53.008;13.558;2022-09-01T10:26:53;0.60;;;0.60;;
47287;SDS011;33020;53.008;13.558;2022-09-01T10:32:39;1.38;;;0.85;;
47287;SDS011;33020;53.008;13.558;2022-09-01T10:35:45;1.05;;;0.75;;
47287;SDS011;33020;53.008;13.558;2022-09-01T10:38:15;1.70;;;0.93;;
47287;SDS011;33020;53.008;13.558;2022-09-01T10:40:46;1.75;;;0.70;;
47287;SDS011;33020;53.008;13.558;2022-09-01T10:45:51;4.40;;;1.00;;
47287;SDS011;33020;53.008;13.558;2022-09-01T10:48:30;1.38;;;0.75;;
47287;SDS011;33020;53.008;13.558;2022-09-01T10:53:48;0.82;;;0.60;;
47287;SDS011;33020;53.008;13.558;2022-09-01T10:56:23;0.77;;;0.70;;
47287;SDS011;33020;53.008;13.558;2022-09-01T11:10:14;0.88;;;0.77;;
47287;SDS011;33020;53.008;13.558;2022-09-01T11:13:13;0.65;;;0.65;;
47287;SDS011;33020;53.008;13.558;2022-09-01T11:15:55;1.25;;;0.70;;
47287;SDS011;33020;53.008;13.558;2022-09-01T11:18:26;2.50;;;1.52;;
47287;SDS011;33020;53.008;13.558;2022-09-01T11:21:13;0.93;;;0.70;;
47287;SDS011;33020;53.008;13.558;2022-09-01T11:23:41;1.15;;;0.80;;
47287;SDS011;33020;53.008;13.558;2022-09-01T11:32:18;0.98;;;0.85;;
47287;SDS011;33020;53.008;13.558;2022-09-01T11:34:47;0.98;;;0.90;;
47287;SDS011;33020;53.008;13.558;2022-09-01T11:37:15;0.95;;;0.80;;
47287;SDS011;33020;53.008;13.558;2022-09-01T11:39:48;0.80;;;0.80;;
47287;SDS011;33020;53.008;13.558;2022-09-01T11:42:17;0.65;;;0.65;;
47287;SDS011;33020;53.008;13.558;2022-09-01T11:44:55;1.42;;;0.80;;
47287;SDS011;33020;53.008;13.558;2022-09-01T11:47:28;0.82;;;0.80;;
47287;SDS011;33020;53.008;13.558;2022-09-01T11:49:59;1.95;;;1.00;;
47287;SDS011;33020;53.008;13.558;2022-09-01T11:52:28;2.13;;;0.70;;
47287;SDS011;33020;53.008;13.558;2022-09-01T11:54:57;1.10;;;0.70;;
47287;SDS011;33020;53.008;13.558;2022-09-01T11:57:32;1.58;;;0.82;;
47287;SDS011;33020;53.008;13.558;2022-09-01T12:00:04;1.45;;;0.90;;
47287;SDS011;33020;53.008;13.558;2022-09-01T12:02:35;0.77;;;0.77;;
47287;SDS011;33020;53.008;13.558;2022-09-01T12:05:22;1.15;;;1.05;;
47287;SDS011;33020;53.008;13.558;2022-09-01T12:07:54;0.95;;;0.70;;
47287;SDS011;33020;53.008;13.558;2022-09-01T12:10:32;3.50;;;0.95;;
47287;SDS011;33020;53.008;13.558;2022-09-01T12:13:01;1.20;;;0.80;;
47287;SDS011;33020;53.008;13.558;2022-09-01T12:15:34;1.00;;;0.80;;
47287;SDS011;33020;53.008;13.558;2022-09-01T12:18:36;0.95;;;0.70;;
47287;SDS011;33020;53.008;13.558;2022-09-01T12:20:57;0.75;;;0.73;;
47287;SDS011;33020;53.008;13.558;2022-09-01T12:23:26;1.27;;;0.80;;
47287;SDS011;33020;53.008;13.558;2022-09-01T12:25:53;0.85;;;0.80;;
47287;SDS011;33020;53.008;13.558;2022-09-01T12:28:25;2.40;;;1.10;;
47287;SDS011;33020;53.008;13.558;2022-09-01T12:31:01;0.93;;;0.85;;
47287;SDS011;33020;53.008;13.558;2022-09-01T12:33:33;0.98;;;0.85;;
47287;SDS011;33020;53.008;13.558;2022-09-01T12:38:50;0.77;;;0.77;;
47287;SDS011;33020;53.008;13.558;2022-09-01T12:41:22;1.30;;;0.77;;
47287;SDS011;33020;53.008;13.558;2022-09-01T12:46:58;1.77;;;0.85;;
47287;SDS011;33020;53.008;13.558;2022-09-01T12:49:41;1.58;;;0.80;;
47287;SDS011;33020;53.008;13.558;2022-09-01T12:54:46;0.70;;;0.70;;
47287;SDS011;33020;53.008;13.558;2022-09-01T12:57:28;0.77;;;0.77;;
47287;SDS011;33020;53.008;13.558;2022-09-01T13:00:06;1.08;;;0.70;;
47287;SDS011;33020;53.008;13.558;2022-09-01T13:02:37;1.08;;;0.70;;
47287;SDS011;33020;53.008;13.558;2022-09-01T13:08:08;0.70;;;0.70;;
47287;SDS011;33020;53.008;13.558;2022-09-01T13:10:46;1.08;;;1.00;;
47287;SDS011;33020;53.008;13.558;2022-09-01T13:13:14;1.45;;;0.77;;
47287;SDS011;33020;53.008;13.558;2022-09-01T13:15:43;0.60;;;0.60;;
47287;SDS011;33020;53.008;13.558;2022-09-01T13:18:14;0.98;;;0.70;;
47287;SDS011;33020;53.008;13.558;2022-09-01T13:20:41;0.65;;;0.65;;
47287;SDS011;33020;53.008;13.558;2022-09-01T13:23:08;0.80;;;0.80;;
47287;SDS011;33020;53.008;13.558;2022-09-01T13:25:38;1.00;;;0.60;;
47287;SDS011;33020;53.008;13.558;2022-09-01T13:28:09;0.88;;;0.73;;
47287;SDS011;33020;53.008;13.558;2022-09-01T13:30:37;1.33;;;1.08;;
47287;SDS011;33020;53.008;13.558;2022-09-01T13:33:04;2.35;;;0.90;;
47287;SDS011;33020;53.008;13.558;2022-09-01T13:35:48;0.80;;;0.77;;
47287;SDS011;33020;53.008;13.558;2022-09-01T13:38:16;0.60;;;0.60;;
47287;SDS011;33020;53.008;13.558;2022-09-01T13:40:44;0.73;;;0.70;;
47287;SDS011;33020;53.008;13.558;2022-09-01T13:43:13;0.82;;;0.70;;
47287;SDS011;33020;53.008;13.558;2022-09-01T13:45:41;1.08;;;0.65;;
47287;SDS011;33020;53.008;13.558;2022-09-01T13:48:10;5.47;;;1.20;;
47287;SDS011;33020;53.008;13.558;2022-09-01T13:50:42;1.08;;;0.75;;
47287;SDS011;33020;53.008;13.558;2022-09-01T13:53:31;0.77;;;0.70;;
47287;SDS011;33020;53.008;13.558;2022-09-01T13:55:58;2.42;;;0.75;;
47287;SDS011;33020;53.008;13.558;2022-09-01T13:58:24;0.82;;;0.70;;
47287;SDS011;33020;53.008;13.558;2022-09-01T14:00:52;0.70;;;0.63;;
47287;SDS011;33020;53.008;13.558;2022-09-01T14:03:20;1.70;;;0.82;;
47287;SDS011;33020;53.008;13.558;2022-09-01T14:05:48;1.38;;;0.90;;
47287;SDS011;33020;53.008;13.558;2022-09-01T14:08:16;1.95;;;0.70;;
47287;SDS011;33020;53.008;13.558;2022-09-01T14:10:45;1.13;;;0.77;;
47287;SDS011;33020;53.008;13.558;2022-09-01T14:13:17;0.98;;;0.60;;
47287;SDS011;33020;53.008;13.558;2022-09-01T14:15:45;6.20;;;1.58;;
47287;SDS011;33020;53.008;13.558;2022-09-01T14:18:13;0.77;;;0.65;;
47287;SDS011;33020;53.008;13.558;2022-09-01T14:20:43;0.73;;;0.60;;
47287;SDS011;33020;53.008;13.558;2022-09-01T14:23:11;1.10;;;0.70;;
47287;SDS011;33020;53.008;13.558;2022-09-01T14:25:43;1.42;;;0.80;;
47287;SDS011;33020;53.008;13.558;2022-09-01T14:28:12;0.70;;;0.68;;
47287;SDS011;33020;53.008;13.558;2022-09-01T14:30:41;0.63;;;0.63;;
47287;SDS011;33020;53.008;13.558;2022-09-01T14:33:09;0.80;;;0.60;;
47287;SDS011;33020;53.008;13.558;2022-09-01T14:35:37;1.20;;;0.60;;
47287;SDS011;33020;53.008;13.558;2022-09-01T14:38:05;0.73;;;0.60;;
47287;SDS011;33020;53.008;13.558;2022-09-01T14:40:35;1.55;;;0.90;;
47287;SDS011;33020;53.008;13.558;2022-09-01T14:43:04;1.35;;;0.90;;
47287;SDS011;33020;53.008;13.558;2022-09-01T14:45:32;0.60;;;0.60;;
47287;SDS011;33020;53.008;13.558;2022-09-01T14:47:59;0.50;;;0.50;;
47287;SDS011;33020;53.008;13.558;2022-09-01T14:50:27;0.52;;;0.52;;
47287;SDS011;33020;53.008;13.558;2022-09-01T14:55:28;1.08;;;0.80;;
47287;SDS011;33020;53.008;13.558;2022-09-01T14:57:56;1.20;;;0.90;;
47287;SDS011;33020;53.008;13.558;2022-09-01T15:00:23;0.82;;;0.70;;
47287;SDS011;33020;53.008;13.558;2022-09-01T15:02:53;0.85;;;0.70;;
47287;SDS011;33020;53.008;13.558;2022-09-01T15:05:21;0.63;;;0.60;;
47287;SDS011;33020;53.008;13.558;2022-09-01T15:07:49;0.70;;;0.70;;
47287;SDS011;33020;53.008;13.558;2022-09-01T15:10:17;0.85;;;0.73;;
47287;SDS011;33020;53.008;13.558;2022-09-01T15:12:51;0.50;;;0.50;;
47287;SDS011;33020;53.008;13.558;2022-09-01T15:15:19;0.70;;;0.63;;
47287;SDS011;33020;53.008;13.558;2022-09-01T15:17:46;1.10;;;1.00;;
47287;SDS011;33020;53.008;13.558;2022-09-01T15:20:13;0.60;;;0.60;;
47287;SDS011;33020;53.008;13.558;2022-09-01T15:22:58;0.98;;;0.73;;
47287;SDS011;33020;53.008;13.558;2022-09-01T15:25:26;0.80;;;0.80;;
47287;SDS011;33020;53.008;13.558;2022-09-01T15:27:53;0.93;;;0.70;;
47287;SDS011;33020;53.008;13.558;2022-09-01T15:30:20;0.50;;;0.50;;
47287;SDS011;33020;53.008;13.558;2022-09-01T15:32:48;0.82;;;0.82;;
47287;SDS011;33020;53.008;13.558;2022-09-01T15:35:16;0.55;;;0.55;;
47287;SDS011;33020;53.008;13.558;2022-09-01T15:37:45;1.33;;;0.70;;
47287;SDS011;33020;53.008;13.558;2022-09-01T15:40:13;0.75;;;0.70;;
47287;SDS011;33020;53.008;13.558;2022-09-01T15:42:39;0.95;;;0.70;;
47287;SDS011;33020;53.008;13.558;2022-09-01T15:45:08;1.05;;;0.50;;
47287;SDS011;33020;53.008;13.558;2022-09-01T15:47:36;0.80;;;0.80;;
47287;SDS011;33020;53.008;13.558;2022-09-01T15:50:09;1.58;;;0.70;;
47287;SDS011;33020;53.008;13.558;2022-09-01T15:55:19;0.80;;;0.68;;
47287;SDS011;33020;53.008;13.558;2022-09-01T15:58:09;1.75;;;0.80;;
47287;SDS011;33020;53.008;13.558;2022-09-01T16:00:36;0.70;;;0.55;;
47287;SDS011;33020;53.008;13.558;2022-09-01T16:03:04;0.98;;;0.88;;
47287;SDS011;33020;53.008;13.558;2022-09-01T16:05:32;0.80;;;0.80;;
47287;SDS011;33020;53.008;13.558;2022-09-01T16:08:00;0.63;;;0.63;;
47287;SDS011;33020;53.008;13.558;2022-09-01T16:10:28;1.05;;;0.77;;
47287;SDS011;33020;53.008;13.558;2022-09-01T16:13:00;11.98;;;2.53;;
47287;SDS011;33020;53.008;13.558;2022-09-01T16:15:27;1.08;;;0.82;;
47287;SDS011;33020;53.008;13.558;2022-09-01T16:23:22;0.95;;;0.68;;